Portada
METAR-TAF:

METAR-TAF

Aeroports :

N'Djamena, Txad

latitud: 12-08N, longitud: 015-02E, altitud: 295 m

Observació

L'informe es va fer fa 24 minuts, a les 02:00 UTC
Vent 2 kt del Nord-Oest
Temperatura 25°C
Humitat 44%
Pressió 1006 hPa
Visibilitat 10 km o més
sense núvols per sota de 1500 mi sense presència de cumulonimbus.

METAR: FTTJ 240200Z 32002KT CAVOK 25/12 Q1006 NOSIG

Hora: 03:24 (02:24 UTC)

Pronòstic

L'informe es va fer fa 3 hores i 19 minuts, a les 23:05 UTC
Pronòstic vàlid del 24 a les 00 UTC al 25 a les 06 UTC
Vent 6 kt del Nord
Visibilitat: 8000 m

TAF: FTTJ 232305Z 2400/2506 36006KT 8000 NSC

Observacions i pronòstics meteorològics de més de 4000 aeroports (METAR i TAF).

Les estacions disponibles són els punts grocs i vermells al mapa.

Posi el ratolí al punt desitjat per veure el nom de l'estació.

Feu clic per veure les observacions i els pronòstics meteorològics.

Per canviar el mapa: feu clic els botons verds amb una creu de color negre per apropar; al botó verd amb un guió per allunyar la imatge; o en les fletxes verdes per a mapes adjacents.


METAR-TAF: